sensor_id;sensor_type;location;lat;lon;timestamp;pressure;altitude;pressure_sealevel;temperature;humidity
45621;BME280;31345;51.522;10.702;2024-01-07T00:00:09;98947.19;;;1.41;100.00
45621;BME280;31345;51.522;10.702;2024-01-07T00:02:37;98959.22;;;1.40;100.00
45621;BME280;31345;51.522;10.702;2024-01-07T00:05:09;98963.56;;;1.38;100.00
45621;BME280;31345;51.522;10.702;2024-01-07T00:07:37;98965.88;;;1.19;100.00
45621;BME280;31345;51.522;10.702;2024-01-07T00:10:04;98971.00;;;1.19;100.00
45621;BME280;31345;51.522;10.702;2024-01-07T00:12:37;98964.28;;;1.15;100.00
45621;BME280;31345;51.522;10.702;2024-01-07T00:15:07;98972.81;;;1.15;100.00
45621;BME280;31345;51.522;10.702;2024-01-07T00:17:34;98966.22;;;1.06;100.00
45621;BME280;31345;51.522;10.702;2024-01-07T00:20:01;98970.56;;;1.04;100.00
45621;BME280;31345;51.522;10.702;2024-01-07T00:22:34;98967.13;;;1.04;100.00
45621;BME280;31345;51.522;10.702;2024-01-07T00:25:02;98968.72;;;1.08;100.00
45621;BME280;31345;51.522;10.702;2024-01-07T00:27:34;98980.28;;;1.25;100.00
45621;BME280;31345;51.522;10.702;2024-01-07T00:30:09;98976.50;;;1.36;100.00
45621;BME280;31345;51.522;10.702;2024-01-07T00:32:36;98982.53;;;1.35;100.00
45621;BME280;31345;51.522;10.702;2024-01-07T00:35:04;98980.34;;;1.52;100.00
45621;BME280;31345;51.522;10.702;2024-01-07T00:37:32;98975.38;;;1.45;100.00
45621;BME280;31345;51.522;10.702;2024-01-07T00:40:01;98981.53;;;1.41;100.00
45621;BME280;31345;51.522;10.702;2024-01-07T00:42:28;98987.25;;;1.21;100.00
45621;BME280;31345;51.522;10.702;2024-01-07T00:44:56;98989.78;;;1.22;100.00
45621;BME280;31345;51.522;10.702;2024-01-07T00:47:30;98998.00;;;1.05;100.00
45621;BME280;31345;51.522;10.702;2024-01-07T00:49:57;98992.94;;;1.02;100.00
45621;BME280;31345;51.522;10.702;2024-01-07T00:52:25;98999.47;;;1.14;100.00
45621;BME280;31345;51.522;10.702;2024-01-07T00:54:52;99002.50;;;0.97;100.00
45621;BME280;31345;51.522;10.702;2024-01-07T00:57:19;99007.69;;;0.95;100.00
45621;BME280;31345;51.522;10.702;2024-01-07T00:59:47;99002.47;;;0.98;100.00
45621;BME280;31345;51.522;10.702;2024-01-07T01:02:14;99011.41;;;0.87;100.00
45621;BME280;31345;51.522;10.702;2024-01-07T01:04:43;99016.25;;;0.97;100.00
45621;BME280;31345;51.522;10.702;2024-01-07T01:07:10;99024.94;;;0.93;100.00
45621;BME280;31345;51.522;10.702;2024-01-07T01:09:38;99015.56;;;0.91;100.00
45621;BME280;31345;51.522;10.702;2024-01-07T01:12:10;99019.00;;;0.90;100.00
45621;BME280;31345;51.522;10.702;2024-01-07T01:14:37;99029.38;;;0.88;100.00
45621;BME280;31345;51.522;10.702;2024-01-07T01:17:05;99032.78;;;0.89;100.00
45621;BME280;31345;51.522;10.702;2024-01-07T01:19:32;99039.66;;;0.88;100.00
45621;BME280;31345;51.522;10.702;2024-01-07T01:22:06;99051.13;;;0.76;100.00
45621;BME280;31345;51.522;10.702;2024-01-07T01:24:38;99045.84;;;0.81;100.00
45621;BME280;31345;51.522;10.702;2024-01-07T01:27:06;99042.69;;;1.03;100.00
45621;BME280;31345;51.522;10.702;2024-01-07T01:29:38;99059.06;;;1.00;100.00
45621;BME280;31345;51.522;10.702;2024-01-07T01:32:06;99059.00;;;1.03;100.00
45621;BME280;31345;51.522;10.702;2024-01-07T01:34:33;99065.16;;;0.97;100.00
45621;BME280;31345;51.522;10.702;2024-01-07T01:37:08;99069.59;;;0.92;100.00
45621;BME280;31345;51.522;10.702;2024-01-07T01:39:40;99073.03;;;0.91;100.00
45621;BME280;31345;51.522;10.702;2024-01-07T01:42:08;99075.56;;;0.93;100.00
45621;BME280;31345;51.522;10.702;2024-01-07T01:44:35;99084.91;;;0.97;100.00
45621;BME280;31345;51.522;10.702;2024-01-07T01:47:08;99087.78;;;0.84;100.00
45621;BME280;31345;51.522;10.702;2024-01-07T01:49:40;99080.69;;;0.94;100.00
45621;BME280;31345;51.522;10.702;2024-01-07T01:52:14;99079.88;;;0.92;100.00
45621;BME280;31345;51.522;10.702;2024-01-07T01:54:42;99082.28;;;0.98;100.00
45621;BME280;31345;51.522;10.702;2024-01-07T01:57:17;99074.97;;;1.16;100.00
45621;BME280;31345;51.522;10.702;2024-01-07T01:59:47;99084.81;;;1.00;100.00
45621;BME280;31345;51.522;10.702;2024-01-07T02:02:19;99079.75;;;0.97;100.00
45621;BME280;31345;51.522;10.702;2024-01-07T02:04:51;99082.28;;;0.98;100.00
45621;BME280;31345;51.522;10.702;2024-01-07T02:07:21;99087.31;;;1.03;100.00
45621;BME280;31345;51.522;10.702;2024-01-07T02:09:53;99091.03;;;0.91;100.00
45621;BME280;31345;51.522;10.702;2024-01-07T02:12:20;99089.03;;;0.69;100.00
45621;BME280;31345;51.522;10.702;2024-01-07T02:14:53;99097.69;;;0.67;100.00
45621;BME280;31345;51.522;10.702;2024-01-07T02:17:26;99096.84;;;0.66;100.00
45621;BME280;31345;51.522;10.702;2024-01-07T02:19:59;99102.03;;;0.63;100.00
45621;BME280;31345;51.522;10.702;2024-01-07T02:22:27;99105.72;;;0.54;100.00
45621;BME280;31345;51.522;10.702;2024-01-07T02:24:56;99110.44;;;0.35;100.00
45621;BME280;31345;51.522;10.702;2024-01-07T02:27:23;99113.78;;;0.39;100.00
45621;BME280;31345;51.522;10.702;2024-01-07T02:29:52;99103.41;;;0.42;100.00
45621;BME280;31345;51.522;10.702;2024-01-07T02:32:19;99106.56;;;0.53;100.00
45621;BME280;31345;51.522;10.702;2024-01-07T02:34:51;99115.28;;;0.48;100.00
45621;BME280;31345;51.522;10.702;2024-01-07T02:37:24;99112.84;;;0.43;100.00
45621;BME280;31345;51.522;10.702;2024-01-07T02:39:58;99119.59;;;0.47;100.00
45621;BME280;31345;51.522;10.702;2024-01-07T02:42:25;99118.81;;;0.43;100.00
45621;BME280;31345;51.522;10.702;2024-01-07T02:44:52;99116.66;;;0.26;100.00
45621;BME280;31345;51.522;10.702;2024-01-07T02:47:20;99121.00;;;0.23;100.00
45621;BME280;31345;51.522;10.702;2024-01-07T02:49:52;99126.00;;;0.30;100.00
45621;BME280;31345;51.522;10.702;2024-01-07T02:52:19;99117.53;;;0.25;99.71
45621;BME280;31345;51.522;10.702;2024-01-07T02:54:52;99132.13;;;0.25;97.86
45621;BME280;31345;51.522;10.702;2024-01-07T02:57:21;99128.69;;;0.24;96.61
45621;BME280;31345;51.522;10.702;2024-01-07T02:59:48;99132.13;;;0.25;97.94
45621;BME280;31345;51.522;10.702;2024-01-07T03:02:20;99123.53;;;0.26;97.10
45621;BME280;31345;51.522;10.702;2024-01-07T03:04:48;99134.06;;;0.15;98.03
45621;BME280;31345;51.522;10.702;2024-01-07T03:07:20;99136.63;;;0.15;97.90
45621;BME280;31345;51.522;10.702;2024-01-07T03:09:53;99136.56;;;0.18;97.78
45621;BME280;31345;51.522;10.702;2024-01-07T03:12:21;99137.34;;;0.20;98.07
45621;BME280;31345;51.522;10.702;2024-01-07T03:14:49;99130.47;;;0.22;98.47
45621;BME280;31345;51.522;10.702;2024-01-07T03:17:16;99141.50;;;0.27;98.29
45621;BME280;31345;51.522;10.702;2024-01-07T03:19:44;99144.78;;;0.32;98.97
45621;BME280;31345;51.522;10.702;2024-01-07T03:22:16;99138.63;;;0.40;96.60
45621;BME280;31345;51.522;10.702;2024-01-07T03:24:43;99142.72;;;0.49;96.06
45621;BME280;31345;51.522;10.702;2024-01-07T03:27:11;99142.94;;;0.38;96.45
45621;BME280;31345;51.522;10.702;2024-01-07T03:29:40;99146.59;;;0.29;96.44
45621;BME280;31345;51.522;10.702;2024-01-07T03:32:13;99141.47;;;0.29;97.00
45621;BME280;31345;51.522;10.702;2024-01-07T03:34:46;99144.75;;;0.34;96.93
45621;BME280;31345;51.522;10.702;2024-01-07T03:37:13;99147.34;;;0.34;97.09
45621;BME280;31345;51.522;10.702;2024-01-07T03:39:47;99158.06;;;0.14;97.06
45621;BME280;31345;51.522;10.702;2024-01-07T03:42:14;99162.41;;;0.12;97.33
45621;BME280;31345;51.522;10.702;2024-01-07T03:44:48;99159.09;;;0.06;97.89
45621;BME280;31345;51.522;10.702;2024-01-07T03:47:20;99167.53;;;0.12;98.68
45621;BME280;31345;51.522;10.702;2024-01-07T03:49:53;99165.28;;;-0.04;97.92
45621;BME280;31345;51.522;10.702;2024-01-07T03:52:25;99159.38;;;-0.08;98.19
45621;BME280;31345;51.522;10.702;2024-01-07T03:54:57;99163.50;;;-0.00;99.26
45621;BME280;31345;51.522;10.702;2024-01-07T03:57:25;99168.84;;;-0.10;98.25
45621;BME280;31345;51.522;10.702;2024-01-07T03:59:58;99167.88;;;-0.04;98.06
45621;BME280;31345;51.522;10.702;2024-01-07T04:02:31;99160.13;;;-0.02;98.56
45621;BME280;31345;51.522;10.702;2024-01-07T04:04:59;99171.97;;;0.05;98.45
45621;BME280;31345;51.522;10.702;2024-01-07T04:07:31;99171.31;;;-0.05;98.32
45621;BME280;31345;51.522;10.702;2024-01-07T04:10:04;99178.44;;;-0.18;99.55
45621;BME280;31345;51.522;10.702;2024-01-07T04:12:32;99176.03;;;-0.26;98.86
45621;BME280;31345;51.522;10.702;2024-01-07T04:15:06;99180.53;;;-0.37;99.04
45621;BME280;31345;51.522;10.702;2024-01-07T04:17:34;99192.59;;;-0.42;98.46
45621;BME280;31345;51.522;10.702;2024-01-07T04:20:01;99200.41;;;-0.47;97.61
45621;BME280;31345;51.522;10.702;2024-01-07T04:22:29;99192.72;;;-0.49;97.17
45621;BME280;31345;51.522;10.702;2024-01-07T04:24:56;99197.84;;;-0.47;98.71
45621;BME280;31345;51.522;10.702;2024-01-07T04:27:23;99204.50;;;-0.38;99.11
45621;BME280;31345;51.522;10.702;2024-01-07T04:29:56;99213.03;;;-0.36;98.58
45621;BME280;31345;51.522;10.702;2024-01-07T04:32:25;99210.69;;;-0.47;98.70
45621;BME280;31345;51.522;10.702;2024-01-07T04:34:52;99209.88;;;-0.51;98.87
45621;BME280;31345;51.522;10.702;2024-01-07T04:37:20;99217.47;;;-0.43;98.97
45621;BME280;31345;51.522;10.702;2024-01-07T04:39:52;99216.91;;;-0.61;98.95
45621;BME280;31345;51.522;10.702;2024-01-07T04:42:25;99226.16;;;-0.50;98.76
45621;BME280;31345;51.522;10.702;2024-01-07T04:44:57;99224.47;;;-0.51;98.47
45621;BME280;31345;51.522;10.702;2024-01-07T04:47:30;99226.94;;;-0.47;99.07
45621;BME280;31345;51.522;10.702;2024-01-07T04:50:04;99230.19;;;-0.38;99.19
45621;BME280;31345;51.522;10.702;2024-01-07T04:52:31;99233.94;;;-0.57;98.15
45621;BME280;31345;51.522;10.702;2024-01-07T04:54:59;99243.34;;;-0.54;98.73
45621;BME280;31345;51.522;10.702;2024-01-07T04:57:31;99238.25;;;-0.57;98.46
45621;BME280;31345;51.522;10.702;2024-01-07T05:00:05;99248.88;;;-0.77;98.44
45621;BME280;31345;51.522;10.702;2024-01-07T05:02:34;99248.09;;;-0.81;98.82
45621;BME280;31345;51.522;10.702;2024-01-07T05:05:07;99251.38;;;-0.73;98.43
45621;BME280;31345;51.522;10.702;2024-01-07T05:07:35;99260.97;;;-0.86;98.87
45621;BME280;31345;51.522;10.702;2024-01-07T05:10:08;99260.97;;;-0.84;98.67
45621;BME280;31345;51.522;10.702;2024-01-07T05:12:40;99261.78;;;-0.82;98.50
45621;BME280;31345;51.522;10.702;2024-01-07T05:15:08;99266.75;;;-0.73;98.20
45621;BME280;31345;51.522;10.702;2024-01-07T05:17:42;99270.31;;;-0.81;97.08
45621;BME280;31345;51.522;10.702;2024-01-07T05:20:15;99269.66;;;-0.94;96.82
45621;BME280;31345;51.522;10.702;2024-01-07T05:22:42;99270.47;;;-0.91;97.02
45621;BME280;31345;51.522;10.702;2024-01-07T05:25:15;99273.16;;;-0.99;97.36
45621;BME280;31345;51.522;10.702;2024-01-07T05:27:43;99270.53;;;-0.96;98.70
45621;BME280;31345;51.522;10.702;2024-01-07T05:30:15;99273.25;;;-1.05;98.24
45621;BME280;31345;51.522;10.702;2024-01-07T05:32:44;99279.13;;;-0.97;98.07
45621;BME280;31345;51.522;10.702;2024-01-07T05:35:12;99269.78;;;-1.01;97.22
45621;BME280;31345;51.522;10.702;2024-01-07T05:37:44;99269.88;;;-1.09;97.54
45621;BME280;31345;51.522;10.702;2024-01-07T05:40:16;99273.94;;;-0.93;97.14
45621;BME280;31345;51.522;10.702;2024-01-07T05:42:49;99278.16;;;-0.89;96.69
45621;BME280;31345;51.522;10.702;2024-01-07T05:45:17;99278.63;;;-0.64;97.24
45621;BME280;31345;51.522;10.702;2024-01-07T05:47:45;99285.22;;;-1.04;97.06
45621;BME280;31345;51.522;10.702;2024-01-07T05:50:18;99287.78;;;-1.04;97.89
45621;BME280;31345;51.522;10.702;2024-01-07T05:52:46;99296.22;;;-0.97;96.56
45621;BME280;31345;51.522;10.702;2024-01-07T05:55:14;99295.41;;;-0.98;97.61
45621;BME280;31345;51.522;10.702;2024-01-07T05:57:42;99296.38;;;-1.06;97.73
45621;BME280;31345;51.522;10.702;2024-01-07T06:00:16;99306.84;;;-1.20;99.05
45621;BME280;31345;51.522;10.702;2024-01-07T06:02:43;99300.03;;;-1.22;99.44
45621;BME280;31345;51.522;10.702;2024-01-07T06:05:17;99300.84;;;-1.19;98.81
45621;BME280;31345;51.522;10.702;2024-01-07T06:07:45;99306.72;;;-1.13;97.97
45621;BME280;31345;51.522;10.702;2024-01-07T06:10:12;99311.91;;;-1.14;98.09
45621;BME280;31345;51.522;10.702;2024-01-07T06:12:40;99316.19;;;-1.16;97.59
45621;BME280;31345;51.522;10.702;2024-01-07T06:15:13;99324.84;;;-1.24;98.69
45621;BME280;31345;51.522;10.702;2024-01-07T06:17:40;99335.94;;;-1.22;98.55
45621;BME280;31345;51.522;10.702;2024-01-07T06:20:13;99333.44;;;-1.26;98.02
45621;BME280;31345;51.522;10.702;2024-01-07T06:22:47;99332.53;;;-1.22;98.55
45621;BME280;31345;51.522;10.702;2024-01-07T06:25:14;99341.00;;;-1.18;97.56
45621;BME280;31345;51.522;10.702;2024-01-07T06:27:46;99343.66;;;-1.23;97.91
45621;BME280;31345;51.522;10.702;2024-01-07T06:30:14;99337.75;;;-1.28;97.80
45621;BME280;31345;51.522;10.702;2024-01-07T06:32:43;99347.00;;;-1.18;98.15
45621;BME280;31345;51.522;10.702;2024-01-07T06:35:15;99349.56;;;-1.16;98.49
45621;BME280;31345;51.522;10.702;2024-01-07T06:37:49;99347.00;;;-1.16;97.35
45621;BME280;31345;51.522;10.702;2024-01-07T06:40:17;99346.22;;;-1.22;96.72
45621;BME280;31345;51.522;10.702;2024-01-07T06:42:49;99356.59;;;-1.32;96.23
45621;BME280;31345;51.522;10.702;2024-01-07T06:45:22;99362.63;;;-1.37;95.91
45621;BME280;31345;51.522;10.702;2024-01-07T06:47:54;99362.59;;;-1.35;95.55
45621;BME280;31345;51.522;10.702;2024-01-07T06:50:22;99369.34;;;-1.26;95.35
45621;BME280;31345;51.522;10.702;2024-01-07T06:52:50;99373.56;;;-1.20;95.43
45621;BME280;31345;51.522;10.702;2024-01-07T06:55:19;99373.56;;;-1.20;94.77
45621;BME280;31345;51.522;10.702;2024-01-07T06:57:48;99374.16;;;-1.03;94.65
45621;BME280;31345;51.522;10.702;2024-01-07T07:00:17;99382.13;;;-1.22;94.92
45621;BME280;31345;51.522;10.702;2024-01-07T07:02:45;99380.41;;;-1.23;94.81
45621;BME280;31345;51.522;10.702;2024-01-07T07:05:12;99389.06;;;-1.30;93.15
45621;BME280;31345;51.522;10.702;2024-01-07T07:07:45;99394.94;;;-1.20;92.66
45621;BME280;31345;51.522;10.702;2024-01-07T07:10:18;99388.22;;;-1.32;91.57
45621;BME280;31345;51.522;10.702;2024-01-07T07:12:51;99388.22;;;-1.32;90.70
45621;BME280;31345;51.522;10.702;2024-01-07T07:15:18;99404.53;;;-1.36;91.36
45621;BME280;31345;51.522;10.702;2024-01-07T07:17:46;99398.69;;;-1.49;90.30
45621;BME280;31345;51.522;10.702;2024-01-07T07:20:13;99402.06;;;-1.44;91.63
45621;BME280;31345;51.522;10.702;2024-01-07T07:22:46;99412.31;;;-1.44;93.39
45621;BME280;31345;51.522;10.702;2024-01-07T07:25:20;99420.03;;;-1.44;93.09
45621;BME280;31345;51.522;10.702;2024-01-07T07:27:47;99416.59;;;-1.44;90.59
45621;BME280;31345;51.522;10.702;2024-01-07T07:30:20;99418.44;;;-1.59;90.23
45621;BME280;31345;51.522;10.702;2024-01-07T07:32:50;99426.13;;;-1.56;91.37
45621;BME280;31345;51.522;10.702;2024-01-07T07:35:18;99434.56;;;-1.46;90.81
45621;BME280;31345;51.522;10.702;2024-01-07T07:37:51;99438.88;;;-1.50;91.43
45621;BME280;31345;51.522;10.702;2024-01-07T07:40:25;99443.91;;;-1.40;90.48
45621;BME280;31345;51.522;10.702;2024-01-07T07:42:52;99446.66;;;-1.57;90.25
45621;BME280;31345;51.522;10.702;2024-01-07T07:45:24;99457.13;;;-1.78;90.51
45621;BME280;31345;51.522;10.702;2024-01-07T07:47:52;99459.56;;;-1.65;90.91
45621;BME280;31345;51.522;10.702;2024-01-07T07:50:19;99467.38;;;-1.78;90.99
45621;BME280;31345;51.522;10.702;2024-01-07T07:52:47;99475.88;;;-1.74;90.95
45621;BME280;31345;51.522;10.702;2024-01-07T07:55:15;99472.28;;;-1.56;90.32
45621;BME280;31345;51.522;10.702;2024-01-07T07:57:44;99469.66;;;-1.50;90.30
45621;BME280;31345;51.522;10.702;2024-01-07T08:00:13;99492.94;;;-1.73;89.30
45621;BME280;31345;51.522;10.702;2024-01-07T08:02:40;99487.91;;;-1.82;89.55
45621;BME280;31345;51.522;10.702;2024-01-07T08:05:08;99487.75;;;-1.62;89.61
45621;BME280;31345;51.522;10.702;2024-01-07T08:07:35;99491.31;;;-1.82;90.38
45621;BME280;31345;51.522;10.702;2024-01-07T08:10:08;99498.88;;;-1.66;91.26
45621;BME280;31345;51.522;10.702;2024-01-07T08:12:36;99499.75;;;-1.70;89.79
45621;BME280;31345;51.522;10.702;2024-01-07T08:15:06;99511.88;;;-1.87;87.96
45621;BME280;31345;51.522;10.702;2024-01-07T08:17:39;99514.44;;;-1.87;89.12
45621;BME280;31345;51.522;10.702;2024-01-07T08:20:07;99510.88;;;-1.70;88.83
45621;BME280;31345;51.522;10.702;2024-01-07T08:22:34;99512.63;;;-1.74;88.54
45621;BME280;31345;51.522;10.702;2024-01-07T08:25:02;99511.78;;;-1.79;87.71
45621;BME280;31345;51.522;10.702;2024-01-07T08:27:35;99510.88;;;-1.70;89.39
45621;BME280;31345;51.522;10.702;2024-01-07T08:30:06;99509.94;;;-1.63;87.94
45621;BME280;31345;51.522;10.702;2024-01-07T08:32:33;99520.09;;;-1.53;87.63
45621;BME280;31345;51.522;10.702;2024-01-07T08:35:01;99523.91;;;-1.98;87.70
45621;BME280;31345;51.522;10.702;2024-01-07T08:37:28;99522.09;;;-1.82;88.33
45621;BME280;31345;51.522;10.702;2024-01-07T08:40:01;99530.69;;;-1.89;88.06
45621;BME280;31345;51.522;10.702;2024-01-07T08:42:28;99534.94;;;-1.91;88.80
45621;BME280;31345;51.522;10.702;2024-01-07T08:44:59;99534.94;;;-1.87;88.07
45621;BME280;31345;51.522;10.702;2024-01-07T08:47:33;99537.50;;;-1.90;87.81
45621;BME280;31345;51.522;10.702;2024-01-07T08:50:08;99545.22;;;-1.93;88.56
45621;BME280;31345;51.522;10.702;2024-01-07T08:52:36;99545.16;;;-1.82;88.52
45621;BME280;31345;51.522;10.702;2024-01-07T08:55:08;99556.25;;;-1.83;87.97
45621;BME280;31345;51.522;10.702;2024-01-07T08:57:37;99553.56;;;-1.67;86.12
45621;BME280;31345;51.522;10.702;2024-01-07T09:00:10;99545.97;;;-1.80;84.37
45621;BME280;31345;51.522;10.702;2024-01-07T09:02:44;99555.25;;;-1.65;85.77
45621;BME280;31345;51.522;10.702;2024-01-07T09:05:16;99575.91;;;-1.82;85.62
45621;BME280;31345;51.522;10.702;2024-01-07T09:07:49;99567.38;;;-1.87;85.31
45621;BME280;31345;51.522;10.702;2024-01-07T09:10:17;99575.06;;;-1.82;85.22
45621;BME280;31345;51.522;10.702;2024-01-07T09:12:51;99578.44;;;-1.79;83.97
45621;BME280;31345;51.522;10.702;2024-01-07T09:15:20;99587.06;;;-1.86;83.97
45621;BME280;31345;51.522;10.702;2024-01-07T09:17:49;99602.53;;;-2.03;82.90
45621;BME280;31345;51.522;10.702;2024-01-07T09:20:16;99594.00;;;-2.05;82.29
45621;BME280;31345;51.522;10.702;2024-01-07T09:22:44;99599.91;;;-1.94;82.78
45621;BME280;31345;51.522;10.702;2024-01-07T09:25:16;99605.97;;;-2.09;81.59
45621;BME280;31345;51.522;10.702;2024-01-07T09:27:43;99602.56;;;-2.13;82.26
45621;BME280;31345;51.522;10.702;2024-01-07T09:30:16;99614.44;;;-1.96;83.30
45621;BME280;31345;51.522;10.702;2024-01-07T09:32:50;99605.81;;;-1.82;81.52
45621;BME280;31345;51.522;10.702;2024-01-07T09:35:17;99610.03;;;-1.75;80.98
45621;BME280;31345;51.522;10.702;2024-01-07T09:37:48;99607.31;;;-1.56;80.71
45621;BME280;31345;51.522;10.702;2024-01-07T09:40:21;99622.78;;;-1.64;78.60
45621;BME280;31345;51.522;10.702;2024-01-07T09:42:53;99615.34;;;-2.06;79.28
45621;BME280;31345;51.522;10.702;2024-01-07T09:45:26;99618.66;;;-1.87;79.21
45621;BME280;31345;51.522;10.702;2024-01-07T09:48:02;99622.13;;;-1.94;78.62
45621;BME280;31345;51.522;10.702;2024-01-07T09:50:30;99616.22;;;-2.06;77.49
45621;BME280;31345;51.522;10.702;2024-01-07T09:52:58;99623.09;;;-2.14;78.90
45621;BME280;31345;51.522;10.702;2024-01-07T09:55:33;99628.97;;;-2.00;80.86
45621;BME280;31345;51.522;10.702;2024-01-07T09:58:05;99634.97;;;-1.97;81.18
45621;BME280;31345;51.522;10.702;2024-01-07T10:00:38;99627.28;;;-2.01;78.04
45621;BME280;31345;51.522;10.702;2024-01-07T10:03:07;99634.06;;;-1.93;77.92
45621;BME280;31345;51.522;10.702;2024-01-07T10:05:35;99630.50;;;-1.70;76.66
45621;BME280;31345;51.522;10.702;2024-01-07T10:08:07;99630.44;;;-1.59;77.71
45621;BME280;31345;51.522;10.702;2024-01-07T10:10:35;99641.38;;;-1.37;77.89
45621;BME280;31345;51.522;10.702;2024-01-07T10:13:03;99636.97;;;-1.23;77.72
45621;BME280;31345;51.522;10.702;2024-01-07T10:15:35;99647.47;;;-1.51;76.27
45621;BME280;31345;51.522;10.702;2024-01-07T10:18:09;99644.81;;;-1.38;75.33
45621;BME280;31345;51.522;10.702;2024-01-07T10:20:36;99637.13;;;-1.38;76.53
45621;BME280;31345;51.522;10.702;2024-01-07T10:23:09;99643.09;;;-1.41;76.74
45621;BME280;31345;51.522;10.702;2024-01-07T10:25:36;99649.19;;;-1.50;77.16
45621;BME280;31345;51.522;10.702;2024-01-07T10:28:04;99643.25;;;-1.59;74.72
45621;BME280;31345;51.522;10.702;2024-01-07T10:30:38;99640.78;;;-1.74;75.99
45621;BME280;31345;51.522;10.702;2024-01-07T10:33:12;99652.63;;;-1.54;78.17
45621;BME280;31345;51.522;10.702;2024-01-07T10:35:42;99644.84;;;-1.44;77.49
45621;BME280;31345;51.522;10.702;2024-01-07T10:38:14;99654.13;;;-1.26;76.47
45621;BME280;31345;51.522;10.702;2024-01-07T10:40:43;99643.06;;;-1.33;76.44
45621;BME280;31345;51.522;10.702;2024-01-07T10:43:11;99645.63;;;-1.30;76.17
45621;BME280;31345;51.522;10.702;2024-01-07T10:45:43;99647.34;;;-1.35;74.36
45621;BME280;31345;51.522;10.702;2024-01-07T10:48:13;99645.53;;;-1.20;76.15
45621;BME280;31345;51.522;10.702;2024-01-07T10:50:50;99637.84;;;-1.24;77.00
45621;BME280;31345;51.522;10.702;2024-01-07T10:53:21;99635.16;;;-1.08;76.70
45621;BME280;31345;51.522;10.702;2024-01-07T10:55:59;99642.84;;;-1.06;75.69
45621;BME280;31345;51.522;10.702;2024-01-07T10:58:27;99648.75;;;-1.00;76.16
45621;BME280;31345;51.522;10.702;2024-01-07T11:01:00;99644.75;;;-1.30;75.76
45621;BME280;31345;51.522;10.702;2024-01-07T11:03:40;99649.91;;;-1.33;77.17
45621;BME280;31345;51.522;10.702;2024-01-07T11:06:22;99647.28;;;-1.24;76.98
45621;BME280;31345;51.522;10.702;2024-01-07T11:08:54;99646.38;;;-1.20;75.90
45621;BME280;31345;51.522;10.702;2024-01-07T11:11:35;99642.97;;;-1.22;75.16
45621;BME280;31345;51.522;10.702;2024-01-07T11:14:35;99648.06;;;-1.14;78.87
45621;BME280;31345;51.522;10.702;2024-01-07T11:17:08;99653.97;;;-1.06;77.42
45621;BME280;31345;51.522;10.702;2024-01-07T11:19:37;99660.78;;;-1.05;76.72
45621;BME280;31345;51.522;10.702;2024-01-07T11:22:26;99657.22;;;-0.88;77.71
45621;BME280;31345;51.522;10.702;2024-01-07T11:25:00;99666.03;;;-1.17;75.96
45621;BME280;31345;51.522;10.702;2024-01-07T11:27:34;99668.59;;;-1.17;77.59
45621;BME280;31345;51.522;10.702;2024-01-07T11:30:19;99664.91;;;-0.90;77.68
45621;BME280;31345;51.522;10.702;2024-01-07T11:32:46;99665.13;;;-1.13;74.15
45621;BME280;31345;51.522;10.702;2024-01-07T11:35:17;99678.84;;;-1.16;76.32
45621;BME280;31345;51.522;10.702;2024-01-07T11:37:54;99666.59;;;-0.87;75.92
45621;BME280;31345;51.522;10.702;2024-01-07T11:40:26;99664.09;;;-0.92;75.31
45621;BME280;31345;51.522;10.702;2024-01-07T11:42:54;99667.34;;;-0.73;75.43
45621;BME280;31345;51.522;10.702;2024-01-07T11:45:21;99664.06;;;-0.90;73.13
45621;BME280;31345;51.522;10.702;2024-01-07T11:47:49;99668.41;;;-0.99;73.75
45621;BME280;31345;51.522;10.702;2024-01-07T11:50:22;99664.00;;;-0.84;75.82
45621;BME280;31345;51.522;10.702;2024-01-07T11:52:55;99662.50;;;-1.07;74.70
45621;BME280;31345;51.522;10.702;2024-01-07T11:55:23;99665.00;;;-0.96;76.51
45621;BME280;31345;51.522;10.702;2024-01-07T11:57:56;99671.75;;;-0.90;74.59
45621;BME280;31345;51.522;10.702;2024-01-07T12:00:24;99664.09;;;-0.92;75.78
45621;BME280;31345;51.522;10.702;2024-01-07T12:02:56;99658.06;;;-0.86;75.19
45621;BME280;31345;51.522;10.702;2024-01-07T12:05:25;99656.31;;;-0.84;75.78
45621;BME280;31345;51.522;10.702;2024-01-07T12:08:00;99657.19;;;-0.84;75.77
45621;BME280;31345;51.522;10.702;2024-01-07T12:10:34;99655.75;;;-1.14;74.58
45621;BME280;31345;51.522;10.702;2024-01-07T12:13:03;99654.78;;;-1.04;74.77
45621;BME280;31345;51.522;10.702;2024-01-07T12:15:37;99657.22;;;-0.88;75.64
45621;BME280;31345;51.522;10.702;2024-01-07T12:18:09;99658.22;;;-1.05;76.04
45621;BME280;31345;51.522;10.702;2024-01-07T12:20:38;99657.28;;;-0.96;75.94
45621;BME280;31345;51.522;10.702;2024-01-07T12:23:12;99660.56;;;-0.83;75.59
45621;BME280;31345;51.522;10.702;2024-01-07T12:25:44;99657.25;;;-0.93;76.16
45621;BME280;31345;51.522;10.702;2024-01-07T12:28:17;99647.06;;;-1.02;73.92
45621;BME280;31345;51.522;10.702;2024-01-07T12:30:50;99646.91;;;-0.84;76.66
45621;BME280;31345;51.522;10.702;2024-01-07T12:33:19;99651.06;;;-0.73;76.60
45621;BME280;31345;51.522;10.702;2024-01-07T12:35:53;99651.91;;;-0.73;77.88
45621;BME280;31345;51.522;10.702;2024-01-07T12:38:23;99652.63;;;-0.58;78.47
45621;BME280;31345;51.522;10.702;2024-01-07T12:40:51;99654.06;;;-0.35;77.29
45621;BME280;31345;51.522;10.702;2024-01-07T12:43:19;99649.13;;;-0.52;75.88
45621;BME280;31345;51.522;10.702;2024-01-07T12:45:47;99657.84;;;-0.66;75.63
45621;BME280;31345;51.522;10.702;2024-01-07T12:48:19;99649.22;;;-0.59;75.99
45621;BME280;31345;51.522;10.702;2024-01-07T12:50:47;99659.66;;;-0.76;76.70
45621;BME280;31345;51.522;10.702;2024-01-07T12:53:21;99665.56;;;-0.67;75.46
45621;BME280;31345;51.522;10.702;2024-01-07T12:55:54;99655.19;;;-0.58;74.25
45621;BME280;31345;51.522;10.702;2024-01-07T12:58:27;99663.84;;;-0.67;74.79
45621;BME280;31345;51.522;10.702;2024-01-07T13:00:59;99668.34;;;-0.89;77.84
45621;BME280;31345;51.522;10.702;2024-01-07T13:03:31;99669.16;;;-0.87;75.85
45621;BME280;31345;51.522;10.702;2024-01-07T13:05:59;99672.53;;;-0.80;77.43